Time;durP1;ratioP1;P1;durP2;ratioP2;P2;SDS_P1;SDS_P2;PMS_P1;PMS_P2;Temp;Humidity;BMP_temperature;BMP_pressure;BME280_temperature;BME280_humidity;BME280_pressure;Samples;Min_cycle;Max_cycle;Signal;HPM_P1;HPM_P2
2021/12/28 00:01:06;;;;;;;;;2.00;2.00;;;;;;;;5004335;28;45316;-66
2021/12/28 00:03:31;;;;;;;;;1.00;1.00;;;;;;;;5000367;28;45361;-66
2021/12/28 00:05:58;;;;;;;;;2.00;2.00;;;;;;;;5006200;28;45303;-66
2021/12/28 00:08:23;;;;;;;;;0.00;0.00;;;;;;;;5003330;28;45703;-66
2021/12/28 00:10:49;;;;;;;;;1.33;1.00;;;;;;;;4997249;28;45325;-66
2021/12/28 00:13:16;;;;;;;;;0.00;0.00;;;;;;;;5003760;28;45232;-67
2021/12/28 00:18:12;;;;;;;;;1.00;0.00;;;;;;;;5004189;28;45392;-66
2021/12/28 00:20:42;;;;;;;;;1.00;1.00;;;;;;;;5001394;28;45489;-66
2021/12/28 00:23:10;;;;;;;;;0.00;0.00;;;;;;;;5002978;28;45438;-66
2021/12/28 00:25:35;;;;;;;;;0.33;0.33;;;;;;;;5017838;28;45449;-66
2021/12/28 00:28:01;;;;;;;;;2.00;0.00;;;;;;;;5005098;28;47077;-66
2021/12/28 00:30:27;;;;;;;;;0.00;0.00;;;;;;;;5003174;28;45403;-66
2021/12/28 00:32:53;;;;;;;;;1.67;0.67;;;;;;;;5024038;28;45327;-66
2021/12/28 00:35:31;;;;;;;;;1.00;1.00;;;;;;;;5003182;28;45332;-66
2021/12/28 00:37:56;;;;;;;;;0.67;0.67;;;;;;;;5004960;28;47314;-66
2021/12/28 00:40:22;;;;;;;;;1.00;1.00;;;;;;;;5020440;28;45283;-66
2021/12/28 00:42:48;;;;;;;;;1.00;1.00;;;;;;;;5024533;28;45157;-66
2021/12/28 00:45:13;;;;;;;;;2.33;1.00;;;;;;;;5020054;28;46280;-66
2021/12/28 00:47:39;;;;;;;;;7.33;2.00;;;;;;;;5025175;28;45482;-66
2021/12/28 00:50:05;;;;;;;;;1.00;1.00;;;;;;;;5018747;28;45395;-66
2021/12/28 00:52:30;;;;;;;;;1.33;1.33;;;;;;;;5007052;28;45353;-66
2021/12/28 00:54:55;;;;;;;;;2.67;1.00;;;;;;;;5019349;28;45520;-66
2021/12/28 00:57:21;;;;;;;;;1.33;0.00;;;;;;;;5022721;28;45385;-66
2021/12/28 00:59:46;;;;;;;;;2.33;1.33;;;;;;;;5003106;28;45743;-66
2021/12/28 01:02:11;;;;;;;;;1.00;1.00;;;;;;;;5005073;28;45436;-66
2021/12/28 01:04:36;;;;;;;;;0.00;0.00;;;;;;;;5022746;28;45582;-66
2021/12/28 01:07:02;;;;;;;;;1.00;1.00;;;;;;;;5006774;28;47302;-66
2021/12/28 01:09:30;;;;;;;;;1.00;1.00;;;;;;;;5017051;28;45256;-67
2021/12/28 01:11:57;;;;;;;;;3.00;2.00;;;;;;;;5004727;28;45221;-66
2021/12/28 01:14:22;;;;;;;;;1.00;1.00;;;;;;;;5018062;28;45442;-66
2021/12/28 01:16:47;;;;;;;;;0.00;0.00;;;;;;;;5022089;28;46306;-66
2021/12/28 01:19:13;;;;;;;;;0.67;0.00;;;;;;;;5006302;28;45247;-66
2021/12/28 01:21:38;;;;;;;;;1.00;1.00;;;;;;;;5024373;28;45129;-66
2021/12/28 01:24:03;;;;;;;;;0.00;0.00;;;;;;;;5019673;28;45220;-66
2021/12/28 01:26:29;;;;;;;;;1.67;1.33;;;;;;;;5024409;28;45304;-67
2021/12/28 01:28:54;;;;;;;;;0.00;0.00;;;;;;;;5018347;28;45430;-66
2021/12/28 01:31:19;;;;;;;;;0.00;0.00;;;;;;;;5024498;28;45332;-66
2021/12/28 01:33:44;;;;;;;;;1.00;0.00;;;;;;;;5018849;28;45283;-66
2021/12/28 01:36:10;;;;;;;;;1.00;1.00;;;;;;;;5023800;28;46391;-67
2021/12/28 01:38:35;;;;;;;;;1.00;1.00;;;;;;;;5019259;28;45224;-66
2021/12/28 01:41:00;;;;;;;;;0.67;0.67;;;;;;;;5022619;28;45365;-66
2021/12/28 01:43:25;;;;;;;;;0.33;0.33;;;;;;;;5021275;28;45593;-66
2021/12/28 01:45:55;;;;;;;;;0.00;0.00;;;;;;;;5021470;28;46510;-66
2021/12/28 01:48:26;;;;;;;;;0.00;0.00;;;;;;;;5021219;28;45343;-66
2021/12/28 01:50:52;;;;;;;;;0.00;0.00;;;;;;;;5021477;28;45529;-66
2021/12/28 01:53:18;;;;;;;;;1.00;0.00;;;;;;;;5021819;28;45375;-66
2021/12/28 01:55:44;;;;;;;;;0.00;0.00;;;;;;;;5017736;28;45541;-66
2021/12/28 01:58:10;;;;;;;;;0.00;0.00;;;;;;;;5022150;28;45399;-66
2021/12/28 02:00:36;;;;;;;;;0.00;0.00;;;;;;;;5019221;28;45484;-66
2021/12/28 02:03:05;;;;;;;;;0.00;0.00;;;;;;;;5022711;28;45236;-66
2021/12/28 02:05:30;;;;;;;;;0.00;0.00;;;;;;;;5022392;28;45545;-66
2021/12/28 02:07:55;;;;;;;;;0.00;0.00;;;;;;;;5020797;28;45268;-66
2021/12/28 02:10:21;;;;;;;;;0.67;0.00;;;;;;;;5022717;28;45913;-66
2021/12/28 02:12:46;;;;;;;;;0.00;0.00;;;;;;;;5023682;28;45409;-66
2021/12/28 02:15:14;;;;;;;;;0.00;0.00;;;;;;;;5014228;28;46565;-66
2021/12/28 02:17:40;;;;;;;;;1.00;0.00;;;;;;;;5023927;28;45410;-66
2021/12/28 02:20:06;;;;;;;;;0.00;0.00;;;;;;;;5014458;28;45692;-66
2021/12/28 02:22:31;;;;;;;;;0.00;0.00;;;;;;;;5023979;28;45488;-66
2021/12/28 02:24:57;;;;;;;;;0.00;0.00;;;;;;;;5014656;28;46151;-66
2021/12/28 02:27:22;;;;;;;;;1.00;0.00;;;;;;;;5023627;28;45264;-66
2021/12/28 02:29:47;;;;;;;;;0.00;0.00;;;;;;;;5007883;28;45304;-66
2021/12/28 02:32:12;;;;;;;;;0.00;0.00;;;;;;;;5024350;28;45133;-67
2021/12/28 02:34:37;;;;;;;;;0.00;0.00;;;;;;;;5017058;28;45335;-67
2021/12/28 02:37:03;;;;;;;;;0.00;0.00;;;;;;;;5023213;28;45347;-67
2021/12/28 02:39:28;;;;;;;;;0.00;0.00;;;;;;;;5001749;28;45356;-67
2021/12/28 02:41:53;;;;;;;;;0.00;0.00;;;;;;;;5023968;28;45223;-67
2021/12/28 02:44:18;;;;;;;;;1.00;0.00;;;;;;;;4999249;28;47362;-67
2021/12/28 02:46:44;;;;;;;;;1.00;0.00;;;;;;;;5005522;28;44842;-67
2021/12/28 02:49:09;;;;;;;;;1.00;1.00;;;;;;;;4999285;28;45353;-67
2021/12/28 02:51:34;;;;;;;;;1.00;0.00;;;;;;;;5002137;28;45438;-67
2021/12/28 02:53:59;;;;;;;;;0.33;0.33;;;;;;;;5013800;28;45518;-67
2021/12/28 02:56:25;;;;;;;;;0.00;0.00;;;;;;;;5001932;28;45373;-67
2021/12/28 02:58:51;;;;;;;;;0.00;0.00;;;;;;;;5000867;28;45515;-67
2021/12/28 03:01:19;;;;;;;;;0.00;0.00;;;;;;;;5020719;28;45652;-67
2021/12/28 03:03:46;;;;;;;;;2.67;0.00;;;;;;;;5019030;28;46955;-67
2021/12/28 03:06:12;;;;;;;;;0.00;0.00;;;;;;;;5022593;28;45169;-67
2021/12/28 03:08:40;;;;;;;;;0.00;0.00;;;;;;;;5020687;28;45338;-67
2021/12/28 03:11:06;;;;;;;;;0.00;0.00;;;;;;;;5022839;28;45310;-67
2021/12/28 03:13:36;;;;;;;;;1.00;1.00;;;;;;;;5020848;28;46458;-67
2021/12/28 03:16:02;;;;;;;;;0.00;0.00;;;;;;;;5014572;28;45217;-67
2021/12/28 03:18:27;;;;;;;;;0.00;0.00;;;;;;;;5003211;28;45472;-68
2021/12/28 03:20:52;;;;;;;;;0.00;0.00;;;;;;;;5016031;28;45393;-67
2021/12/28 03:23:20;;;;;;;;;0.00;0.00;;;;;;;;5019402;28;46314;-67
2021/12/28 03:25:45;;;;;;;;;1.00;0.00;;;;;;;;5017451;28;45531;-67
2021/12/28 03:28:21;;;;;;;;;0.00;0.00;;;;;;;;5005694;28;45415;-67
2021/12/28 03:30:47;;;;;;;;;0.00;0.00;;;;;;;;5019749;28;45648;-67
2021/12/28 03:33:13;;;;;;;;;0.00;0.00;;;;;;;;5019260;28;45669;-67
2021/12/28 03:35:38;;;;;;;;;3.00;0.00;;;;;;;;5022440;28;45380;-67
2021/12/28 03:38:03;;;;;;;;;0.00;0.00;;;;;;;;5002644;28;45485;-67
2021/12/28 03:40:28;;;;;;;;;1.67;0.00;;;;;;;;5000988;28;45411;-67
2021/12/28 03:42:54;;;;;;;;;1.33;0.00;;;;;;;;5021308;28;45509;-67
2021/12/28 03:45:19;;;;;;;;;0.00;0.00;;;;;;;;5016258;28;45324;-68
2021/12/28 03:47:44;;;;;;;;;2.00;1.00;;;;;;;;5022374;28;45221;-67
2021/12/28 03:50:11;;;;;;;;;0.00;0.00;;;;;;;;5014859;28;45362;-67
2021/12/28 03:52:36;;;;;;;;;1.00;1.00;;;;;;;;5020439;28;46510;-67
2021/12/28 03:55:02;;;;;;;;;2.00;0.00;;;;;;;;5015880;28;45372;-67
2021/12/28 03:57:27;;;;;;;;;0.33;0.33;;;;;;;;5021043;28;45357;-67
2021/12/28 03:59:53;;;;;;;;;0.00;0.00;;;;;;;;5018750;28;45382;-67
2021/12/28 04:02:18;;;;;;;;;2.33;1.00;;;;;;;;5020874;28;45586;-67
2021/12/28 04:04:43;;;;;;;;;0.00;0.00;;;;;;;;5022984;28;45335;-67
2021/12/28 04:07:12;;;;;;;;;0.00;0.00;;;;;;;;5025794;28;45359;-67
2021/12/28 04:12:15;;;;;;;;;2.00;0.00;;;;;;;;5025355;28;46218;-67
2021/12/28 04:14:40;;;;;;;;;0.67;0.00;;;;;;;;5016525;28;45360;-67
2021/12/28 04:17:05;;;;;;;;;0.00;0.00;;;;;;;;5024357;28;45385;-67
2021/12/28 04:19:31;;;;;;;;;0.00;0.00;;;;;;;;5002391;28;45257;-68
2021/12/28 04:21:56;;;;;;;;;0.00;0.00;;;;;;;;5025256;28;46755;-67
2021/12/28 04:24:21;;;;;;;;;0.67;0.67;;;;;;;;5019106;28;45411;-67
2021/12/28 04:26:47;;;;;;;;;0.00;0.00;;;;;;;;5025695;28;45185;-67
2021/12/28 04:29:12;;;;;;;;;1.00;1.00;;;;;;;;5019676;28;45454;-67
2021/12/28 04:31:37;;;;;;;;;0.00;0.00;;;;;;;;5025364;28;45509;-67
2021/12/28 04:34:02;;;;;;;;;0.33;0.33;;;;;;;;5017658;28;45711;-67
2021/12/28 04:36:28;;;;;;;;;1.00;1.00;;;;;;;;5025001;28;45374;-67
2021/12/28 04:38:53;;;;;;;;;0.00;0.00;;;;;;;;5001902;28;45362;-67
2021/12/28 04:41:18;;;;;;;;;1.00;1.00;;;;;;;;5025215;28;45606;-67
2021/12/28 04:43:46;;;;;;;;;0.00;0.00;;;;;;;;5019763;28;45199;-67
2021/12/28 04:46:11;;;;;;;;;0.00;0.00;;;;;;;;5025076;28;45455;-67
2021/12/28 04:48:36;;;;;;;;;0.67;0.67;;;;;;;;5020787;28;45577;-67
2021/12/28 04:51:02;;;;;;;;;0.33;0.33;;;;;;;;5018568;28;46355;-67
2021/12/28 04:53:27;;;;;;;;;0.00;0.00;;;;;;;;5004855;28;45400;-67
2021/12/28 04:55:53;;;;;;;;;1.33;0.00;;;;;;;;5021547;28;45287;-67
2021/12/28 04:58:19;;;;;;;;;0.67;0.67;;;;;;;;5023345;28;45409;-67
2021/12/28 05:00:45;;;;;;;;;0.00;0.00;;;;;;;;5020644;28;45405;-68
2021/12/28 05:03:11;;;;;;;;;0.67;0.67;;;;;;;;5023245;28;45372;-67
2021/12/28 05:05:39;;;;;;;;;0.00;0.00;;;;;;;;5005286;28;45392;-67
2021/12/28 05:08:05;;;;;;;;;2.67;1.00;;;;;;;;5023150;28;45378;-67
2021/12/28 05:10:30;;;;;;;;;0.00;0.00;;;;;;;;5023731;28;45318;-67
2021/12/28 05:12:55;;;;;;;;;0.00;0.00;;;;;;;;5023628;28;45243;-67
2021/12/28 05:15:21;;;;;;;;;2.00;1.00;;;;;;;;5015024;28;45356;-67
2021/12/28 05:17:46;;;;;;;;;0.00;0.00;;;;;;;;5006894;28;45439;-67
2021/12/28 05:20:12;;;;;;;;;1.00;1.00;;;;;;;;5000979;28;48329;-67
2021/12/28 05:22:37;;;;;;;;;1.00;1.00;;;;;;;;5024600;28;45239;-68
2021/12/28 05:25:03;;;;;;;;;1.00;1.00;;;;;;;;5016261;28;45373;-67
2021/12/28 05:27:29;;;;;;;;;1.00;1.00;;;;;;;;5024961;28;45334;-67
2021/12/28 05:29:54;;;;;;;;;0.00;0.00;;;;;;;;5007476;28;48383;-67
2021/12/28 05:32:19;;;;;;;;;1.33;1.33;;;;;;;;5024640;28;45251;-67
2021/12/28 05:34:44;;;;;;;;;0.00;0.00;;;;;;;;5018181;28;45352;-67
2021/12/28 05:37:09;;;;;;;;;2.00;0.00;;;;;;;;5006689;28;45399;-67
2021/12/28 05:39:35;;;;;;;;;1.00;1.00;;;;;;;;5016570;28;46925;-67
2021/12/28 05:42:01;;;;;;;;;2.00;0.67;;;;;;;;5024436;28;45148;-67
2021/12/28 05:44:26;;;;;;;;;0.67;0.67;;;;;;;;5017836;28;45358;-67
2021/12/28 05:46:51;;;;;;;;;0.67;0.67;;;;;;;;5024727;28;45244;-67
2021/12/28 05:49:17;;;;;;;;;0.00;0.00;;;;;;;;5017611;28;45395;-68
2021/12/28 05:51:42;;;;;;;;;0.00;0.00;;;;;;;;5024081;28;45251;-67
2021/12/28 05:54:07;;;;;;;;;0.67;0.00;;;;;;;;5018758;28;45482;-67
2021/12/28 05:56:33;;;;;;;;;0.00;0.00;;;;;;;;5020914;28;45211;-67
2021/12/28 05:58:58;;;;;;;;;0.67;0.67;;;;;;;;5019616;28;46585;-67
2021/12/28 06:01:23;;;;;;;;;0.00;0.00;;;;;;;;5003816;28;45399;-67
2021/12/28 06:03:48;;;;;;;;;0.00;0.00;;;;;;;;5003084;28;45333;-67
2021/12/28 06:06:14;;;;;;;;;0.67;0.67;;;;;;;;5023887;28;45291;-67
2021/12/28 06:08:39;;;;;;;;;3.00;2.33;;;;;;;;5021505;28;46262;-67
2021/12/28 06:11:06;;;;;;;;;0.00;0.00;;;;;;;;5023482;28;45394;-67
2021/12/28 06:13:32;;;;;;;;;3.00;0.00;;;;;;;;5022019;28;45411;-67
2021/12/28 06:15:57;;;;;;;;;0.00;0.00;;;;;;;;5016512;28;45331;-67
2021/12/28 06:18:22;;;;;;;;;2.00;0.00;;;;;;;;5021111;28;46148;-67
2021/12/28 06:20:48;;;;;;;;;2.00;0.67;;;;;;;;5019743;28;45398;-67
2021/12/28 06:23:13;;;;;;;;;1.00;1.00;;;;;;;;5021758;28;45369;-67
2021/12/28 06:25:38;;;;;;;;;2.00;1.00;;;;;;;;5018899;28;45560;-68
2021/12/28 06:28:04;;;;;;;;;0.00;0.00;;;;;;;;5021247;28;46756;-67
2021/12/28 06:30:30;;;;;;;;;1.00;0.00;;;;;;;;5018895;28;45414;-67
2021/12/28 06:32:55;;;;;;;;;1.00;0.67;;;;;;;;5022587;28;45385;-67
2021/12/28 06:35:20;;;;;;;;;2.00;1.00;;;;;;;;5017908;28;45288;-66
2021/12/28 06:37:46;;;;;;;;;0.67;0.33;;;;;;;;5023006;28;45551;-66
2021/12/28 06:40:11;;;;;;;;;0.00;0.00;;;;;;;;5019326;28;45280;-66
2021/12/28 06:42:37;;;;;;;;;1.00;1.00;;;;;;;;5023467;28;45247;-66
2021/12/28 06:45:03;;;;;;;;;1.67;0.33;;;;;;;;5017419;28;45471;-66
2021/12/28 06:47:28;;;;;;;;;1.00;1.00;;;;;;;;5023028;28;45335;-66
2021/12/28 06:49:54;;;;;;;;;0.00;0.00;;;;;;;;5017104;28;45142;-66
2021/12/28 06:52:19;;;;;;;;;2.33;1.33;;;;;;;;5000945;28;45450;-66
2021/12/28 06:54:44;;;;;;;;;1.00;1.00;;;;;;;;5019993;28;45292;-66
2021/12/28 06:57:10;;;;;;;;;2.67;1.67;;;;;;;;5020276;28;46548;-66
2021/12/28 06:59:37;;;;;;;;;2.67;2.00;;;;;;;;5019486;28;45391;-66
2021/12/28 07:02:03;;;;;;;;;4.67;3.00;;;;;;;;5021135;28;45410;-67
2021/12/28 07:04:28;;;;;;;;;2.00;2.00;;;;;;;;5020602;28;45581;-68
2021/12/28 07:06:54;;;;;;;;;4.00;2.33;;;;;;;;5022492;28;45283;-66
2021/12/28 07:09:19;;;;;;;;;2.00;1.33;;;;;;;;5016751;28;45485;-66
2021/12/28 07:11:44;;;;;;;;;2.00;1.00;;;;;;;;5018556;28;45310;-66
2021/12/28 07:14:09;;;;;;;;;2.33;1.00;;;;;;;;5018750;28;46193;-66
2021/12/28 07:16:34;;;;;;;;;5.33;1.00;;;;;;;;5016767;28;46210;-66
2021/12/28 07:19:00;;;;;;;;;4.67;1.33;;;;;;;;5016619;28;45223;-66
2021/12/28 07:21:25;;;;;;;;;4.33;2.00;;;;;;;;5022127;28;45298;-67
2021/12/28 07:23:50;;;;;;;;;2.33;2.00;;;;;;;;4998955;28;45596;-66
2021/12/28 07:26:15;;;;;;;;;1.00;1.00;;;;;;;;5022339;28;45441;-66
2021/12/28 07:28:40;;;;;;;;;1.00;1.00;;;;;;;;5017592;28;45331;-66
2021/12/28 07:31:06;;;;;;;;;0.00;0.00;;;;;;;;5002927;28;45182;-66
2021/12/28 07:33:31;;;;;;;;;3.00;2.67;;;;;;;;5019256;28;45448;-69
2021/12/28 07:35:56;;;;;;;;;2.00;2.00;;;;;;;;5019268;28;45526;-67
2021/12/28 07:38:22;;;;;;;;;5.00;2.00;;;;;;;;5004205;28;45657;-67
2021/12/28 07:40:47;;;;;;;;;3.00;2.00;;;;;;;;5003865;28;45504;-69
2021/12/28 07:43:12;;;;;;;;;5.00;3.00;;;;;;;;5023843;28;45163;-68
2021/12/28 07:45:37;;;;;;;;;1.00;1.00;;;;;;;;5019977;28;45301;-67
2021/12/28 07:48:03;;;;;;;;;2.00;2.00;;;;;;;;5023570;28;45327;-67
2021/12/28 07:50:28;;;;;;;;;0.00;0.00;;;;;;;;5018846;28;45354;-67
2021/12/28 07:52:55;;;;;;;;;2.00;0.67;;;;;;;;5007033;28;45239;-67
2021/12/28 07:55:21;;;;;;;;;6.00;3.00;;;;;;;;5017668;28;46892;-67
2021/12/28 07:57:46;;;;;;;;;2.00;1.00;;;;;;;;5025360;28;45422;-67
2021/12/28 08:00:16;;;;;;;;;0.67;0.67;;;;;;;;5019979;28;45612;-67
2021/12/28 08:02:43;;;;;;;;;3.00;1.00;;;;;;;;5026019;28;45364;-67
2021/12/28 08:05:08;;;;;;;;;1.67;1.00;;;;;;;;5021739;28;45255;-67
2021/12/28 08:07:33;;;;;;;;;0.00;0.00;;;;;;;;5025497;28;45338;-67
2021/12/28 08:09:59;;;;;;;;;2.33;1.00;;;;;;;;5013391;28;45215;-67
2021/12/28 08:12:24;;;;;;;;;1.00;0.50;;;;;;;;5026068;28;45323;-67
2021/12/28 08:14:49;;;;;;;;;3.33;3.00;;;;;;;;5015294;28;45409;-67
2021/12/28 08:17:14;;;;;;;;;1.67;1.67;;;;;;;;5025305;28;45275;-67
2021/12/28 08:19:39;;;;;;;;;1.00;1.00;;;;;;;;5023429;28;45480;-65
2021/12/28 08:22:05;;;;;;;;;0.67;0.00;;;;;;;;5025501;28;45351;-65
2021/12/28 08:24:30;;;;;;;;;3.00;1.00;;;;;;;;5017474;28;45592;-66
2021/12/28 08:26:55;;;;;;;;;1.67;1.33;;;;;;;;5025207;28;45583;-66
2021/12/28 08:29:20;;;;;;;;;1.00;1.00;;;;;;;;5018438;28;45408;-66
2021/12/28 08:31:46;;;;;;;;;6.00;3.00;;;;;;;;5025409;28;45495;-66
2021/12/28 08:34:11;;;;;;;;;1.00;1.00;;;;;;;;5018543;28;45349;-69
2021/12/28 08:36:36;;;;;;;;;2.00;1.00;;;;;;;;5023820;28;45307;-67
2021/12/28 08:39:02;;;;;;;;;2.00;0.67;;;;;;;;5018900;28;45212;-67
2021/12/28 08:41:27;;;;;;;;;1.00;1.00;;;;;;;;5024737;28;45317;-67
2021/12/28 08:43:53;;;;;;;;;3.33;0.33;;;;;;;;5017885;28;45393;-67
2021/12/28 08:46:18;;;;;;;;;2.00;1.00;;;;;;;;5024473;28;45333;-67
2021/12/28 08:48:43;;;;;;;;;0.00;0.00;;;;;;;;5019415;28;45342;-67
2021/12/28 08:51:09;;;;;;;;;1.00;1.00;;;;;;;;5021429;28;45381;-68
2021/12/28 08:53:34;;;;;;;;;0.00;0.00;;;;;;;;5020791;28;45542;-69
2021/12/28 08:55:59;;;;;;;;;1.00;0.67;;;;;;;;5022041;28;45494;-67
2021/12/28 08:58:24;;;;;;;;;2.67;0.33;;;;;;;;5022402;28;45355;-67
2021/12/28 09:00:50;;;;;;;;;0.67;0.67;;;;;;;;5024099;28;45320;-67
2021/12/28 09:03:15;;;;;;;;;4.67;0.33;;;;;;;;5004819;28;47930;-67
2021/12/28 09:05:40;;;;;;;;;2.00;2.00;;;;;;;;5010845;28;45775;-67
2021/12/28 09:08:09;;;;;;;;;0.00;0.00;;;;;;;;5022575;28;45522;-68
2021/12/28 09:10:34;;;;;;;;;2.00;1.00;;;;;;;;5016178;28;45339;-67
2021/12/28 09:12:59;;;;;;;;;0.00;0.00;;;;;;;;5022994;28;45510;-67
2021/12/28 09:15:25;;;;;;;;;8.67;6.33;;;;;;;;5016797;28;45437;-67
2021/12/28 09:17:50;;;;;;;;;2.00;0.00;;;;;;;;5024123;28;45568;-67
2021/12/28 09:20:17;;;;;;;;;0.67;0.67;;;;;;;;5020072;28;45321;-67
2021/12/28 09:22:43;;;;;;;;;4.67;1.00;;;;;;;;5023962;28;45532;-67
2021/12/28 09:25:09;;;;;;;;;0.67;0.67;;;;;;;;5017585;28;45400;-67
2021/12/28 09:27:34;;;;;;;;;3.00;1.00;;;;;;;;5024224;28;45371;-66
2021/12/28 09:29:59;;;;;;;;;1.00;1.00;;;;;;;;5018047;28;45347;-66
2021/12/28 09:32:24;;;;;;;;;4.00;1.67;;;;;;;;5023892;28;46546;-66
2021/12/28 09:34:51;;;;;;;;;4.33;2.00;;;;;;;;5017170;28;45248;-66
2021/12/28 09:37:17;;;;;;;;;2.67;1.00;;;;;;;;5023715;28;45370;-66
2021/12/28 09:39:42;;;;;;;;;3.33;3.33;;;;;;;;5017884;28;45705;-66
2021/12/28 09:42:08;;;;;;;;;0.00;0.00;;;;;;;;5023770;28;45398;-66
2021/12/28 09:44:34;;;;;;;;;5.67;2.33;;;;;;;;5016903;28;45321;-66
2021/12/28 09:47:00;;;;;;;;;4.33;1.67;;;;;;;;5023574;28;45323;-66
2021/12/28 09:49:27;;;;;;;;;2.00;0.67;;;;;;;;5018532;28;45592;-66
2021/12/28 09:51:53;;;;;;;;;3.67;1.00;;;;;;;;5019763;28;45741;-66
2021/12/28 09:54:18;;;;;;;;;2.33;1.33;;;;;;;;5018880;28;45440;-66
2021/12/28 09:56:44;;;;;;;;;2.00;2.00;;;;;;;;5021096;28;45351;-66
2021/12/28 09:59:09;;;;;;;;;8.00;3.00;;;;;;;;5020533;28;45542;-66
2021/12/28 10:01:35;;;;;;;;;2.33;1.33;;;;;;;;5021250;28;46363;-66
2021/12/28 10:04:01;;;;;;;;;7.33;3.67;;;;;;;;5020498;28;45278;-66
2021/12/28 10:06:27;;;;;;;;;7.00;3.33;;;;;;;;5022342;28;45249;-66
2021/12/28 10:09:25;;;;;;;;;3.67;3.00;;;;;;;;5021754;28;45541;-66
2021/12/28 10:11:53;;;;;;;;;5.00;1.67;;;;;;;;4989344;28;46120;-66
2021/12/28 10:14:24;;;;;;;;;3.33;2.00;;;;;;;;5017070;28;45318;-66
2021/12/28 10:16:51;;;;;;;;;4.00;3.00;;;;;;;;5024082;28;45325;-65
2021/12/28 10:19:35;;;;;;;;;7.33;3.67;;;;;;;;5017724;28;45489;-65
2021/12/28 10:22:19;;;;;;;;;5.00;3.00;;;;;;;;5022855;28;47574;-66
2021/12/28 10:24:44;;;;;;;;;4.00;3.33;;;;;;;;5015928;28;45601;-67
2021/12/28 10:27:10;;;;;;;;;2.00;2.00;;;;;;;;5021491;28;46034;-66
2021/12/28 10:29:35;;;;;;;;;7.67;4.67;;;;;;;;5015540;28;45363;-66
2021/12/28 10:32:19;;;;;;;;;5.00;2.67;;;;;;;;5021849;28;45506;-66
2021/12/28 10:34:46;;;;;;;;;5.33;3.00;;;;;;;;5015282;28;45486;-66
2021/12/28 10:37:18;;;;;;;;;7.33;2.67;;;;;;;;5021319;28;45278;-67
2021/12/28 10:39:48;;;;;;;;;5.00;2.00;;;;;;;;5015414;28;45828;-67
2021/12/28 10:42:33;;;;;;;;;6.00;3.00;;;;;;;;5021548;28;46290;-66
2021/12/28 10:44:59;;;;;;;;;11.33;3.67;;;;;;;;5004405;28;45462;-67
2021/12/28 10:47:28;;;;;;;;;5.00;3.33;;;;;;;;5017964;28;45510;-67
2021/12/28 10:49:53;;;;;;;;;5.33;4.67;;;;;;;;5017483;28;45347;-67
2021/12/28 10:52:27;;;;;;;;;6.33;3.00;;;;;;;;5018113;28;45280;-68
2021/12/28 10:55:11;;;;;;;;;4.33;3.67;;;;;;;;5018099;28;45414;-67
2021/12/28 10:57:40;;;;;;;;;6.67;1.33;;;;;;;;5008653;28;45496;-67
2021/12/28 11:00:25;;;;;;;;;14.33;4.00;;;;;;;;5000620;28;45439;-67
2021/12/28 11:02:52;;;;;;;;;9.00;3.00;;;;;;;;5003292;28;46367;-67
2021/12/28 11:05:33;;;;;;;;;4.33;3.00;;;;;;;;5016781;28;45447;-67
2021/12/28 11:07:59;;;;;;;;;7.33;5.33;;;;;;;;5002537;28;45487;-67
2021/12/28 11:10:28;;;;;;;;;5.00;4.00;;;;;;;;5013350;28;45239;-67
2021/12/28 11:12:57;;;;;;;;;10.33;5.00;;;;;;;;5019864;28;45491;-66
2021/12/28 11:15:23;;;;;;;;;5.00;4.00;;;;;;;;5015807;28;45314;-66
2021/12/28 11:17:48;;;;;;;;;5.33;4.00;;;;;;;;5021198;28;45260;-67
2021/12/28 11:20:13;;;;;;;;;4.33;2.00;;;;;;;;5013047;28;45506;-67
2021/12/28 11:22:39;;;;;;;;;7.00;4.00;;;;;;;;5019110;28;47349;-67
2021/12/28 11:25:16;;;;;;;;;5.50;3.00;;;;;;;;4975878;28;1125503;-67
2021/12/28 11:27:41;;;;;;;;;5.00;2.33;;;;;;;;5022268;28;45326;-67
2021/12/28 11:30:14;;;;;;;;;4.67;3.00;;;;;;;;5015985;28;45403;-66
2021/12/28 11:32:39;;;;;;;;;13.00;6.33;;;;;;;;5022058;28;45798;-66
2021/12/28 11:35:06;;;;;;;;;2.67;2.67;;;;;;;;5015904;28;45465;-67
2021/12/28 11:37:32;;;;;;;;;1.00;1.00;;;;;;;;5022229;28;45484;-67
2021/12/28 11:39:59;;;;;;;;;9.00;6.67;;;;;;;;5016129;28;45378;-66
2021/12/28 11:42:25;;;;;;;;;6.33;2.67;;;;;;;;4999524;28;47265;-66
2021/12/28 11:44:51;;;;;;;;;6.00;4.00;;;;;;;;5016781;28;45407;-67
2021/12/28 11:47:17;;;;;;;;;3.00;3.00;;;;;;;;5000990;28;45335;-66
2021/12/28 11:49:44;;;;;;;;;9.33;7.00;;;;;;;;5018136;28;45232;-66
2021/12/28 11:52:11;;;;;;;;;11.00;4.00;;;;;;;;5001068;28;48133;-67
2021/12/28 11:54:38;;;;;;;;;5.67;5.67;;;;;;;;5018321;28;45479;-67
2021/12/28 11:57:30;;;;;;;;;3.67;3.33;;;;;;;;5020283;28;45475;-67
2021/12/28 12:00:01;;;;;;;;;11.67;4.00;;;;;;;;5014905;28;45573;-66
2021/12/28 12:02:35;;;;;;;;;2.00;1.00;;;;;;;;5020884;28;45302;-66
2021/12/28 12:05:00;;;;;;;;;7.33;5.00;;;;;;;;5003073;28;45328;-67
2021/12/28 12:07:26;;;;;;;;;8.67;4.00;;;;;;;;5021693;28;45313;-66
2021/12/28 12:09:52;;;;;;;;;14.67;7.00;;;;;;;;5013024;28;45557;-66
2021/12/28 12:12:22;;;;;;;;;4.00;4.00;;;;;;;;5021793;28;47045;-71
2021/12/28 12:14:50;;;;;;;;;5.00;4.00;;;;;;;;5015973;28;45326;-66
2021/12/28 12:17:28;;;;;;;;;3.67;3.67;;;;;;;;5003603;28;45205;-66
2021/12/28 12:19:54;;;;;;;;;5.00;3.33;;;;;;;;5015543;28;45360;-66
2021/12/28 12:22:32;;;;;;;;;5.67;4.00;;;;;;;;5003435;28;48168;-66
2021/12/28 12:25:02;;;;;;;;;5.33;4.33;;;;;;;;5017980;28;45476;-66
2021/12/28 12:27:43;;;;;;;;;5.00;1.00;;;;;;;;5025198;28;45263;-66
2021/12/28 12:30:17;;;;;;;;;8.67;4.67;;;;;;;;5002876;28;45324;-66
2021/12/28 12:33:01;;;;;;;;;4.67;3.67;;;;;;;;5025089;28;45493;-66
2021/12/28 12:35:41;;;;;;;;;7.33;3.33;;;;;;;;5021685;28;45336;-67
2021/12/28 12:38:12;;;;;;;;;5.33;4.67;;;;;;;;5023023;28;45327;-67
2021/12/28 12:40:49;;;;;;;;;4.67;3.33;;;;;;;;5023056;28;45606;-67
2021/12/28 12:43:15;;;;;;;;;6.00;2.33;;;;;;;;5022245;28;45402;-67
2021/12/28 12:45:52;;;;;;;;;6.33;5.00;;;;;;;;5015974;28;45356;-67
2021/12/28 12:48:29;;;;;;;;;5.33;4.67;;;;;;;;5022832;28;45322;-68
2021/12/28 12:51:15;;;;;;;;;8.33;4.33;;;;;;;;5019495;28;45580;-66
2021/12/28 12:53:46;;;;;;;;;10.00;5.00;;;;;;;;5020121;28;46157;-66
2021/12/28 12:56:12;;;;;;;;;5.67;2.00;;;;;;;;5022301;28;45456;-67
2021/12/28 12:58:39;;;;;;;;;6.33;4.00;;;;;;;;5021879;28;45387;-67
2021/12/28 13:01:04;;;;;;;;;5.00;2.00;;;;;;;;5025011;28;45283;-66
2021/12/28 13:03:36;;;;;;;;;3.33;3.00;;;;;;;;5022152;28;45550;-67
2021/12/28 13:06:01;;;;;;;;;2.00;2.00;;;;;;;;5022591;28;45414;-67
2021/12/28 13:08:26;;;;;;;;;3.00;3.00;;;;;;;;5022120;28;45711;-67
2021/12/28 13:10:51;;;;;;;;;8.33;5.00;;;;;;;;5017471;28;45315;-67
2021/12/28 13:13:17;;;;;;;;;2.00;2.00;;;;;;;;5022629;28;45511;-68
2021/12/28 13:15:42;;;;;;;;;2.67;2.00;;;;;;;;5019662;28;45232;-67
2021/12/28 13:18:07;;;;;;;;;3.00;1.33;;;;;;;;5022123;28;45478;-67
2021/12/28 13:20:34;;;;;;;;;4.00;2.33;;;;;;;;5006478;28;45612;-67
2021/12/28 13:23:01;;;;;;;;;4.33;2.00;;;;;;;;5022287;28;45551;-67
2021/12/28 13:25:33;;;;;;;;;1.67;1.67;;;;;;;;5001430;28;45480;-67
2021/12/28 13:27:59;;;;;;;;;3.00;3.00;;;;;;;;5019185;28;45438;-67
2021/12/28 13:30:27;;;;;;;;;4.67;2.67;;;;;;;;5000513;28;45329;-67
2021/12/28 13:32:54;;;;;;;;;3.33;0.67;;;;;;;;5023979;28;45533;-66
2021/12/28 13:35:21;;;;;;;;;11.00;6.33;;;;;;;;5018362;28;45443;-67
2021/12/28 13:37:48;;;;;;;;;6.33;5.00;;;;;;;;5023401;28;45327;-67
2021/12/28 13:40:35;;;;;;;;;12.33;7.00;;;;;;;;5017883;28;45154;-67
2021/12/28 13:43:00;;;;;;;;;6.33;3.33;;;;;;;;5009815;28;45404;-67
2021/12/28 13:45:45;;;;;;;;;5.67;3.00;;;;;;;;5015864;28;45663;-67
2021/12/28 13:48:10;;;;;;;;;5.33;5.00;;;;;;;;4983372;28;45447;-67
2021/12/28 13:50:36;;;;;;;;;4.00;3.00;;;;;;;;5019152;28;45447;-67
2021/12/28 13:53:01;;;;;;;;;7.00;5.00;;;;;;;;5022740;28;46373;-67
2021/12/28 13:55:28;;;;;;;;;10.00;6.33;;;;;;;;5020893;28;45370;-67
2021/12/28 13:57:54;;;;;;;;;11.00;2.33;;;;;;;;5023369;28;45414;-70
2021/12/28 14:00:20;;;;;;;;;5.00;3.00;;;;;;;;5014079;28;45502;-67
2021/12/28 14:03:15;;;;;;;;;9.33;7.00;;;;;;;;5023348;28;46655;-67
2021/12/28 14:05:41;;;;;;;;;3.00;2.00;;;;;;;;5011264;28;45612;-67
2021/12/28 14:08:06;;;;;;;;;3.33;1.67;;;;;;;;5022121;28;45457;-67
2021/12/28 14:10:33;;;;;;;;;8.33;1.00;;;;;;;;5019480;28;45339;-66
2021/12/28 14:13:06;;;;;;;;;9.33;4.33;;;;;;;;5022905;28;46206;-67
2021/12/28 14:15:44;;;;;;;;;8.67;2.67;;;;;;;;5018599;28;45395;-67
2021/12/28 14:18:28;;;;;;;;;5.00;1.67;;;;;;;;5011305;28;45664;-66
2021/12/28 14:20:54;;;;;;;;;1.00;1.00;;;;;;;;5020646;28;45431;-66
2021/12/28 14:23:32;;;;;;;;;2.67;1.00;;;;;;;;5019971;28;45576;-66
2021/12/28 14:26:07;;;;;;;;;1.00;1.00;;;;;;;;5019295;28;45355;-66
2021/12/28 14:28:32;;;;;;;;;0.00;0.00;;;;;;;;5020558;28;45359;-66
2021/12/28 14:31:10;;;;;;;;;4.00;0.33;;;;;;;;4999185;28;45380;-66
2021/12/28 14:34:05;;;;;;;;;1.67;1.67;;;;;;;;5019638;28;46512;-65
2021/12/28 14:36:34;;;;;;;;;2.67;1.00;;;;;;;;5006294;28;45311;-66
2021/12/28 14:39:07;;;;;;;;;4.00;1.00;;;;;;;;5016409;28;45361;-65
2021/12/28 14:41:32;;;;;;;;;3.33;1.00;;;;;;;;5018034;28;45232;-66
2021/12/28 14:44:08;;;;;;;;;1.67;1.67;;;;;;;;5004028;28;47143;-66
2021/12/28 14:46:33;;;;;;;;;2.33;1.00;;;;;;;;5021242;28;45624;-66
2021/12/28 14:48:58;;;;;;;;;2.00;1.00;;;;;;;;5017981;28;45378;-66